createdAt,value
2022-08-30T00:02:33.591Z,64.8
2022-08-30T00:08:25.419Z,64.3
2022-08-30T00:14:16.494Z,66.2
2022-08-30T00:20:08.501Z,64.9
2022-08-30T00:26:00.965Z,64.4
2022-08-30T00:31:51.231Z,63.2
2022-08-30T00:37:42.882Z,64.7
2022-08-30T00:43:34.308Z,66.3
2022-08-30T00:49:27.481Z,66.1
2022-08-30T00:55:18.993Z,66
2022-08-30T01:01:10.218Z,66.2
2022-08-30T01:07:01.362Z,64.6
2022-08-30T01:12:52.698Z,67.3
2022-08-30T01:18:46.136Z,66.2
2022-08-30T01:24:40.359Z,68.5
2022-08-30T01:30:31.525Z,69.5
2022-08-30T01:36:22.639Z,67.9
2022-08-30T01:42:13.357Z,67.5
2022-08-30T01:48:07.142Z,68.1
2022-08-30T01:54:02.568Z,69
2022-08-30T01:59:53.198Z,68.4
2022-08-30T02:05:44.619Z,68.2
2022-08-30T02:11:36.809Z,67.4
2022-08-30T02:17:29.246Z,67.4
2022-08-30T02:23:21.831Z,68.6
2022-08-30T02:29:12.604Z,68.2
2022-08-30T02:35:03.335Z,71.4
2022-08-30T02:40:54.728Z,70.4
2022-08-30T02:46:45.580Z,69.2
2022-08-30T02:52:36.917Z,69.6
2022-08-30T02:58:32.305Z,69.9
2022-08-30T03:04:28.710Z,70.1
2022-08-30T03:10:19.002Z,69.9
2022-08-30T03:16:09.767Z,70.1
2022-08-30T03:22:02.183Z,70.3
2022-08-30T03:27:53.020Z,70.8
2022-08-30T03:33:43.432Z,70.4
2022-08-30T03:39:34.411Z,70.8
2022-08-30T03:45:26.762Z,71.2
2022-08-30T03:51:18.096Z,71
2022-08-30T03:57:17.614Z,72
2022-08-30T04:03:13.306Z,72
2022-08-30T04:09:04.739Z,72.6
2022-08-30T04:14:56.241Z,73
2022-08-30T04:20:47.466Z,72.7
2022-08-30T04:26:40.391Z,72.1
2022-08-30T04:32:30.454Z,73.7
2022-08-30T04:38:27.541Z,73.3
2022-08-30T04:44:21.535Z,71.5
2022-08-30T04:50:12.122Z,73.9
2022-08-30T04:56:03.904Z,73.2
2022-08-30T05:01:56.376Z,73.1
2022-08-30T05:07:47.596Z,73.7
2022-08-30T05:13:40.043Z,72.7
2022-08-30T05:19:31.294Z,73.4
2022-08-30T05:25:23.335Z,72.7
2022-08-30T05:31:15.600Z,74.3
2022-08-30T05:37:06.646Z,73.7
2022-08-30T05:43:00.197Z,73.3
2022-08-30T05:48:51.433Z,72.8
2022-08-30T05:54:42.166Z,73.1
2022-08-30T06:00:33.697Z,72
2022-08-30T06:06:31.694Z,72.5
2022-08-30T06:12:24.140Z,72.7
2022-08-30T06:18:15.213Z,72.3
2022-08-30T06:24:15.890Z,71.1
2022-08-30T06:31:49.358Z,72.9
2022-08-30T06:37:42.988Z,71.5
2022-08-30T06:43:35.173Z,70.2
2022-08-30T06:49:28.566Z,69.9
2022-08-30T06:55:23.471Z,72.8
2022-08-30T07:01:14.557Z,72.7
2022-08-30T07:07:08.356Z,71.8
2022-08-30T07:13:02.476Z,71
2022-08-30T07:18:55.429Z,70.7
2022-08-30T07:24:48.057Z,69.3
2022-08-30T07:30:39.355Z,69.7
2022-08-30T07:36:34.423Z,67.5
2022-08-30T07:42:27.441Z,69.1
2022-08-30T07:48:20.755Z,67.9
2022-08-30T07:54:12.067Z,66.4
2022-08-30T08:00:03.379Z,65.5
2022-08-30T08:05:54.983Z,65.9
2022-08-30T08:11:47.329Z,64.8
2022-08-30T08:17:39.700Z,63.3
2022-08-30T08:23:31.640Z,62.6
2022-08-30T08:29:23.141Z,62.2
2022-08-30T08:35:16.645Z,60
2022-08-30T08:41:07.241Z,59.6
2022-08-30T08:46:59.011Z,58.5
2022-08-30T08:52:55.097Z,57.1
2022-08-30T08:58:47.040Z,56.6
2022-08-30T09:04:37.463Z,54.6
2022-08-30T09:10:50.667Z,54
2022-08-30T09:16:40.551Z,53.9
2022-08-30T09:22:31.853Z,52.9
2022-08-30T09:28:26.580Z,52.9
2022-08-30T09:34:18.534Z,53.3
2022-08-30T09:40:11.909Z,53.7
2022-08-30T09:46:06.519Z,52.6
2022-08-30T09:52:06.793Z,53
2022-08-30T09:57:58.190Z,51.4
2022-08-30T10:03:49.609Z,51.6
2022-08-30T10:09:42.859Z,50.5
2022-08-30T10:15:33.821Z,49.9
2022-08-30T10:21:26.708Z,49.9
2022-08-30T10:27:19.213Z,48.7
2022-08-30T10:33:10.555Z,47.8
2022-08-30T10:39:03.739Z,46.2
2022-08-30T10:45:01.730Z,46.4
2022-08-30T10:50:52.998Z,45
2022-08-30T10:56:46.192Z,44.5
2022-08-30T11:02:39.428Z,45.5
2022-08-30T11:08:32.734Z,44.4
2022-08-30T11:14:27.063Z,44.5
2022-08-30T11:20:19.794Z,44.4
2022-08-30T11:26:21.973Z,44.5
2022-08-30T11:32:13.485Z,44.7
2022-08-30T11:38:05.752Z,42.7
2022-08-30T11:44:01.754Z,40.9
2022-08-30T11:49:56.164Z,40.5
2022-08-30T11:55:47.954Z,40.6
2022-08-30T12:01:52.332Z,40.4
2022-08-30T12:07:43.590Z,40.1
2022-08-30T12:13:37.099Z,39.6
2022-08-30T12:19:30.317Z,39.5
2022-08-30T12:25:23.492Z,39.5
2022-08-30T12:31:16.406Z,39.2
2022-08-30T12:37:09.097Z,38.2
2022-08-30T12:43:06.792Z,38.3
2022-08-30T12:48:59.618Z,37.5
2022-08-30T12:54:53.443Z,37.9
2022-08-30T13:00:46.605Z,37.8
2022-08-30T13:06:42.597Z,37.2
2022-08-30T13:12:34.486Z,38.3
2022-08-30T13:18:29.025Z,37.3
2022-08-30T13:24:25.614Z,37.3
2022-08-30T13:30:16.413Z,37.7
2022-08-30T13:36:10.615Z,36.9
2022-08-30T13:42:33.474Z,37.4
2022-08-30T13:48:26.479Z,37.2
2022-08-30T13:54:16.276Z,37.8
2022-08-30T14:00:09.134Z,36.8
2022-08-30T14:06:33.850Z,36.7
2022-08-30T14:13:10.326Z,37.3
2022-08-30T14:19:03.278Z,36.7
2022-08-30T14:24:57.137Z,36.5
2022-08-30T14:30:52.079Z,36.4
2022-08-30T14:36:44.732Z,36.4
2022-08-30T14:42:36.209Z,36.1
2022-08-30T14:48:30.364Z,36.7
2022-08-30T14:54:22.212Z,36.4
2022-08-30T15:00:15.105Z,36.6
2022-08-30T15:06:12.263Z,37
2022-08-30T15:12:04.414Z,36.5
2022-08-30T15:17:58.055Z,36.3
2022-08-30T15:23:50.045Z,36.4
2022-08-30T15:29:43.903Z,37.2
2022-08-30T15:35:39.372Z,36.6
2022-08-30T15:41:30.905Z,36.8
2022-08-30T15:47:30.925Z,36.7
2022-08-30T15:53:23.316Z,36.6
2022-08-30T15:59:15.171Z,37.6
2022-08-30T16:05:06.572Z,37.1
2022-08-30T16:10:58.073Z,36.7
2022-08-30T16:16:49.326Z,36.6
2022-08-30T16:22:47.441Z,36.8
2022-08-30T16:28:37.827Z,36.9
2022-08-30T16:34:35.782Z,36.5
2022-08-30T16:40:29.982Z,36.9
2022-08-30T16:46:28.503Z,36.8
2022-08-30T16:52:21.628Z,36.8
2022-08-30T16:58:22.298Z,37
2022-08-30T17:04:20.033Z,37.4
2022-08-30T17:10:14.953Z,37.5
2022-08-30T17:16:29.192Z,37.6
2022-08-30T17:22:22.952Z,38.2
2022-08-30T17:28:16.130Z,38.4
2022-08-30T17:34:13.356Z,38.2
2022-08-30T17:40:06.071Z,38.4
2022-08-30T17:46:04.794Z,39.3
2022-08-30T17:52:00.152Z,39.4
2022-08-30T17:57:52.613Z,39.8
2022-08-30T18:03:48.441Z,40
2022-08-30T20:30:11.204Z,49.9
2022-08-30T20:36:01.230Z,50.5
2022-08-30T20:41:53.667Z,50.6
2022-08-30T20:47:45.037Z,49.7
2022-08-30T20:53:36.405Z,50.4
2022-08-30T20:59:28.524Z,50.4
2022-08-30T21:05:21.677Z,50.5
2022-08-30T21:11:12.843Z,50.7
2022-08-30T21:17:01.965Z,50.3
2022-08-30T21:22:53.217Z,50.9
2022-08-30T21:28:46.122Z,51
2022-08-30T21:34:37.220Z,51.8
2022-08-30T21:40:28.215Z,51.7
2022-08-30T21:46:18.917Z,51.5
2022-08-30T21:52:10.601Z,51.5
2022-08-30T21:58:13.784Z,51.6
2022-08-30T22:04:06.395Z,51.8
2022-08-30T22:09:58.329Z,52.4
2022-08-30T22:15:49.676Z,53.1
2022-08-30T22:21:46.597Z,53.3
2022-08-30T22:27:38.957Z,53.4
2022-08-30T22:33:30.025Z,53.9
2022-08-30T22:39:22.130Z,54.3
2022-08-30T22:45:15.471Z,55
2022-08-30T22:51:05.393Z,55.4
2022-08-30T22:56:57.700Z,55.7
2022-08-30T23:02:52.127Z,56.5
2022-08-30T23:08:46.520Z,57.5
2022-08-30T23:14:37.224Z,58.1
2022-08-30T23:20:28.548Z,57
2022-08-30T23:26:20.523Z,56.9
2022-08-30T23:32:11.660Z,57.2
2022-08-30T23:38:02.888Z,60.4
2022-08-30T23:43:55.584Z,67.9
2022-08-30T23:49:46.180Z,69.5
2022-08-30T23:55:37.306Z,70.4
